createdAt,value
2018-12-08T00:00:36.121Z,99278.47
2018-12-08T00:05:32.248Z,99268.53
2018-12-08T00:10:28.292Z,99273.25
2018-12-08T00:15:24.418Z,99289.55
2018-12-08T00:20:20.441Z,99295.26
2018-12-08T00:25:17.175Z,99301.00
2018-12-08T00:30:25.558Z,99302.20
2018-12-08T00:35:21.576Z,99307.23
2018-12-08T00:40:17.621Z,99308.84
2018-12-08T00:45:13.669Z,99312.86
2018-12-08T00:50:09.811Z,99316.27
2018-12-08T00:55:11.066Z,99309.32
2018-12-08T01:00:07.253Z,99304.40
2018-12-08T01:05:03.693Z,99303.19
2018-12-08T01:09:59.742Z,99305.30
2018-12-08T01:14:55.759Z,99297.07
2018-12-08T01:19:51.764Z,99310.52
2018-12-08T01:24:50.628Z,99311.52
2018-12-08T01:29:46.642Z,99311.73
2018-12-08T01:34:42.694Z,99328.52
2018-12-08T01:39:38.708Z,99310.73
2018-12-08T01:44:34.749Z,99314.06
2018-12-08T01:49:30.765Z,99314.75
2018-12-08T01:54:28.702Z,99313.92
2018-12-08T01:59:24.798Z,99314.64
2018-12-08T02:04:20.858Z,99315.27
2018-12-08T02:09:16.878Z,99312.14
2018-12-08T02:14:12.930Z,99318.67
2018-12-08T02:19:08.932Z,99322.22
2018-12-08T02:24:07.197Z,99320.91
2018-12-08T02:29:03.341Z,99321.32
2018-12-08T02:33:59.367Z,99316.48
2018-12-08T02:38:55.459Z,99327.45
2018-12-08T02:43:51.516Z,99320.60
2018-12-08T02:48:47.639Z,99327.10
2018-12-08T02:53:43.682Z,99320.88
2018-12-08T02:58:39.753Z,99322.08
2018-12-08T03:03:35.794Z,99311.20
2018-12-08T03:08:32.065Z,99302.36
2018-12-08T03:13:28.090Z,99288.30
2018-12-08T03:18:24.199Z,99281.59
2018-12-08T03:23:20.276Z,99279.09
2018-12-08T03:28:16.306Z,99275.06
2018-12-08T03:33:12.337Z,99273.86
2018-12-08T03:38:08.430Z,99265.29
2018-12-08T03:43:04.484Z,99271.30
2018-12-08T03:48:00.500Z,99263.56
2018-12-08T03:52:56.533Z,99252.31
2018-12-08T03:57:52.681Z,99253.61
2018-12-08T04:02:48.705Z,99244.56
2018-12-08T04:07:44.740Z,99249.69
2018-12-08T04:12:40.783Z,99245.14
2018-12-08T04:17:36.869Z,99235.69
2018-12-08T04:22:33.023Z,99253.55
2018-12-08T04:27:30.903Z,99238.36
2018-12-08T04:32:26.955Z,99235.75
2018-12-08T04:37:23.006Z,99228.48
2018-12-08T04:42:19.034Z,99224.75
2018-12-08T04:47:15.149Z,99228.67
2018-12-08T04:52:11.176Z,99218.80
2018-12-08T04:57:07.189Z,99211.53
2018-12-08T05:02:03.234Z,99216.13
2018-12-08T05:06:59.265Z,99211.80
2018-12-08T05:11:55.286Z,99202.01
2018-12-08T05:16:51.369Z,99208.34
2018-12-08T05:21:47.389Z,99219.66
2018-12-08T05:26:43.402Z,99215.80
2018-12-08T05:31:39.418Z,99215.75
2018-12-08T05:36:35.441Z,99212.86
2018-12-08T05:41:31.590Z,99208.49
2018-12-08T05:46:27.609Z,99202.44
2018-12-08T05:51:23.645Z,99210.78
2018-12-08T05:56:19.664Z,99196.82
2018-12-08T06:01:15.687Z,99192.09
2018-12-08T06:06:11.798Z,99208.33
2018-12-08T06:11:07.825Z,99186.83
2018-12-08T06:16:03.958Z,99198.98
2018-12-08T06:21:00.001Z,99183.69
2018-12-08T06:25:56.134Z,99187.83
2018-12-08T06:30:52.163Z,99185.42
2018-12-08T06:35:48.217Z,99190.75
2018-12-08T06:40:44.268Z,99172.91
2018-12-08T06:45:40.325Z,99182.67
2018-12-08T06:50:36.375Z,99190.16
2018-12-08T06:55:32.415Z,99164.44
2018-12-08T07:00:28.568Z,99153.05
2018-12-08T07:05:24.658Z,99157.65
2018-12-08T07:10:20.692Z,99148.70
2018-12-08T07:15:16.727Z,99162.80
2018-12-08T07:20:12.843Z,99160.69
2018-12-08T07:25:10.055Z,99156.55
2018-12-08T07:30:07.747Z,99131.79
2018-12-08T07:35:04.730Z,99133.58
2018-12-08T07:40:01.090Z,99138.23
2018-12-08T07:44:57.150Z,99131.28
2018-12-08T07:49:53.187Z,99123.44
2018-12-08T07:54:49.876Z,99125.66
2018-12-08T07:59:45.954Z,99125.14
2018-12-08T08:04:42.015Z,99108.34
2018-12-08T08:09:38.051Z,99104.91
2018-12-08T08:14:34.098Z,99117.93
2018-12-08T08:19:30.140Z,99112.82
2018-12-08T08:24:29.691Z,99108.99
2018-12-08T08:29:25.781Z,99113.00
2018-12-08T08:34:21.895Z,99117.93
2018-12-08T08:39:17.942Z,99116.02
2018-12-08T08:44:13.997Z,99111.70
2018-12-08T08:49:10.063Z,99101.57
2018-12-08T08:54:07.803Z,99110.52
2018-12-08T08:59:03.867Z,99111.97
2018-12-08T09:03:59.937Z,99091.30
2018-12-08T09:08:55.990Z,99081.31
2018-12-08T09:13:52.057Z,99082.83
2018-12-08T09:18:48.118Z,99079.58
2018-12-08T09:23:44.302Z,99064.06
2018-12-08T09:28:40.445Z,99050.55
2018-12-08T09:33:36.476Z,99047.94
2018-12-08T09:38:32.533Z,99054.47
2018-12-08T09:43:28.566Z,99067.55
2018-12-08T09:48:24.665Z,99075.22
2018-12-08T09:53:20.755Z,99067.23
2018-12-08T09:58:16.818Z,99059.17
2018-12-08T10:03:12.850Z,99048.62
2018-12-08T10:08:08.911Z,99032.31
2018-12-08T10:13:05.875Z,99023.02
2018-12-08T10:18:02.729Z,99019.45
2018-12-08T10:22:59.517Z,99000.02
2018-12-08T10:27:58.294Z,99009.30
2018-12-08T10:32:55.132Z,99015.41
2018-12-08T10:37:51.263Z,99013.80
2018-12-08T10:42:47.316Z,99025.87
2018-12-08T10:47:43.378Z,99007.12
2018-12-08T10:52:39.417Z,99007.80
2018-12-08T10:57:35.463Z,98996.69
2018-12-08T11:02:36.505Z,99005.81
2018-12-08T11:07:32.602Z,98996.22
2018-12-08T11:12:28.666Z,99005.23
2018-12-08T11:17:24.851Z,99009.73
2018-12-08T11:22:20.904Z,99017.37
2018-12-08T11:27:17.825Z,99013.04
2018-12-08T11:32:15.789Z,99012.55
2018-12-08T11:37:12.002Z,99002.08
2018-12-08T11:42:08.063Z,99008.22
2018-12-08T11:47:04.193Z,98996.71
2018-12-08T11:52:00.239Z,99004.73
2018-12-08T11:56:56.417Z,99001.32
2018-12-08T12:01:52.477Z,99004.73
2018-12-08T12:06:48.522Z,99016.31
2018-12-08T12:11:44.550Z,99011.23
2018-12-08T12:16:40.604Z,99009.18
2018-12-08T12:21:36.698Z,99008.73
2018-12-08T12:26:32.726Z,99007.05
2018-12-08T12:31:28.761Z,99000.06
2018-12-08T12:36:25.020Z,99006.31
2018-12-08T12:41:21.088Z,98994.97
2018-12-08T12:46:17.147Z,99007.70
2018-12-08T12:51:13.284Z,99006.69
2018-12-08T12:56:09.304Z,99012.80
2018-12-08T13:01:05.523Z,99007.86
2018-12-08T13:06:01.586Z,99004.07
2018-12-08T13:10:57.617Z,99016.13
2018-12-08T13:15:53.712Z,99010.33
2018-12-08T13:20:50.561Z,99008.56
2018-12-08T13:25:48.172Z,98998.50
2018-12-08T13:30:44.776Z,98986.08
2018-12-08T13:35:49.290Z,98997.88
2018-12-08T13:40:45.338Z,99005.88
2018-12-08T13:45:41.402Z,98999.62
2018-12-08T13:50:37.571Z,99006.12
2018-12-08T13:55:33.618Z,99010.06
2018-12-08T14:00:29.680Z,99004.33
2018-12-08T14:05:25.733Z,99006.02
2018-12-08T14:10:21.804Z,98988.37
2018-12-08T14:15:17.901Z,99004.11
2018-12-08T14:20:22.014Z,98998.69
2018-12-08T14:25:19.095Z,99020.32
2018-12-08T14:30:15.168Z,99017.44
2018-12-08T14:35:11.192Z,99022.95
2018-12-08T14:40:08.334Z,99018.52
2018-12-08T14:45:04.694Z,99011.14
2018-12-08T14:50:00.729Z,99018.45
2018-12-08T14:54:57.542Z,99019.61
2018-12-08T14:59:53.624Z,99027.80
2018-12-08T15:04:49.976Z,99023.42
2018-12-08T15:09:46.087Z,99020.13
2018-12-08T15:14:42.282Z,99016.58
2018-12-08T15:19:38.335Z,99016.88
2018-12-08T15:24:37.180Z,99018.60
2018-12-08T15:29:33.291Z,99014.62
2018-12-08T15:34:29.441Z,99009.87
2018-12-08T15:39:25.495Z,99017.89
2018-12-08T15:44:21.593Z,99023.20
2018-12-08T15:49:17.611Z,99038.26
2018-12-08T15:54:16.008Z,99044.22
2018-12-08T15:59:12.093Z,99038.64
2018-12-08T16:04:08.219Z,99037.95
2018-12-08T16:09:04.581Z,99040.70
2018-12-08T16:14:00.611Z,99036.12
2018-12-08T16:18:57.053Z,99031.36
2018-12-08T16:23:53.101Z,99026.91
2018-12-08T16:28:49.151Z,99020.13
2018-12-08T16:33:45.150Z,99015.64
2018-12-08T16:38:41.162Z,99008.27
2018-12-08T16:43:37.590Z,99000.86
2018-12-08T16:48:35.711Z,98995.17
2018-12-08T16:53:32.008Z,98987.75
2018-12-08T16:58:28.113Z,98983.22
2018-12-08T17:03:24.198Z,98976.62
2018-12-08T17:08:20.321Z,98971.17
2018-12-08T17:13:16.361Z,98953.12
2018-12-08T17:18:12.506Z,98945.86
2018-12-08T17:23:09.619Z,98932.17
2018-12-08T17:28:05.733Z,98934.08
2018-12-08T17:33:01.771Z,98921.62
2018-12-08T17:37:57.997Z,98913.94
2018-12-08T17:42:54.079Z,98887.41
2018-12-08T17:47:50.267Z,98877.92
2018-12-08T17:52:46.462Z,98862.79
2018-12-08T17:57:42.575Z,98850.97
2018-12-08T18:02:38.728Z,98836.64
2018-12-08T18:07:35.075Z,98807.64
2018-12-08T18:12:32.413Z,98789.79
2018-12-08T18:17:30.651Z,98776.52
2018-12-08T18:22:28.374Z,98757.44
2018-12-08T18:27:27.420Z,98749.95
2018-12-08T18:32:24.224Z,98756.42
2018-12-08T18:37:20.299Z,98731.77
2018-12-08T18:42:16.389Z,98721.12
2018-12-08T18:47:12.399Z,98700.27
2018-12-08T18:52:08.446Z,98690.44
2018-12-08T18:57:04.797Z,98673.85
2018-12-08T19:02:04.194Z,98667.54
2018-12-08T19:07:01.850Z,98654.13
2018-12-08T19:11:57.926Z,98662.05
2018-12-08T19:16:53.950Z,98644.13
2018-12-08T19:21:50.102Z,98619.69
2018-12-08T19:26:46.133Z,98600.20
2018-12-08T19:31:42.161Z,98606.86
2018-12-08T19:36:38.179Z,98585.19
2018-12-08T19:41:34.198Z,98573.52
2018-12-08T19:46:30.235Z,98564.58
2018-12-08T19:51:26.245Z,98549.55
2018-12-08T19:56:22.325Z,98534.90
2018-12-08T20:01:18.362Z,98532.53
2018-12-08T20:06:14.369Z,98517.38
2018-12-08T20:11:10.387Z,98492.19
2018-12-08T20:16:06.430Z,98477.11
2018-12-08T20:21:02.583Z,98461.76
2018-12-08T20:25:58.593Z,98446.86
2018-12-08T20:30:54.616Z,98428.02
2018-12-08T20:35:50.630Z,98410.98
2018-12-08T20:40:46.654Z,98387.58
2018-12-08T20:45:43.547Z,98366.34
2018-12-08T20:50:39.633Z,98341.34
2018-12-08T20:55:42.421Z,98342.09
2018-12-08T21:00:39.333Z,98318.23
2018-12-08T21:05:35.414Z,98306.89
2018-12-08T21:10:32.735Z,98303.05
2018-12-08T21:15:28.875Z,98292.55
2018-12-08T21:20:24.901Z,98284.45
2018-12-08T21:25:21.669Z,98256.17
2018-12-08T21:30:17.697Z,98238.56
2018-12-08T21:35:13.743Z,98236.06
2018-12-08T21:40:13.815Z,98227.95
2018-12-08T21:45:09.988Z,98199.67
2018-12-08T21:50:06.110Z,98182.63
2018-12-08T21:55:03.008Z,98171.19
2018-12-08T22:00:02.117Z,98160.27
2018-12-08T22:04:58.165Z,98158.24
2018-12-08T22:09:54.251Z,98150.94
2018-12-08T22:14:56.363Z,98138.44
2018-12-08T22:19:52.896Z,98138.25
2018-12-08T22:24:49.611Z,98135.88
2018-12-08T22:29:45.621Z,98137.19
2018-12-08T22:34:41.740Z,98130.67
2018-12-08T22:39:37.850Z,98119.67
2018-12-08T22:44:33.864Z,98110.30
2018-12-08T22:49:29.967Z,98096.22
2018-12-08T22:54:27.005Z,98079.89
2018-12-08T22:59:23.093Z,98069.70
2018-12-08T23:04:19.120Z,98059.77
2018-12-08T23:09:15.141Z,98062.44
2018-12-08T23:14:11.169Z,98054.14
2018-12-08T23:19:07.240Z,98103.61
2018-12-08T23:24:04.814Z,98052.77
2018-12-08T23:29:01.039Z,98047.23
2018-12-08T23:33:57.066Z,98003.59
2018-12-08T23:38:53.095Z,98024.97
2018-12-08T23:43:49.129Z,97992.88
2018-12-08T23:48:45.158Z,98022.00
2018-12-08T23:58:54.046Z,98109.02
